Time;durP1;ratioP1;P1;durP2;ratioP2;P2;SDS_P1;SDS_P2;PMS_P1;PMS_P2;Temp;Humidity;BMP_temperature;BMP_pressure;BME280_temperature;BME280_humidity;BME280_pressure;Samples;Min_cycle;Max_cycle;Signal;HPM_P1;HPM_P2
2022/05/03 00:00:17;;;;;;;16.40;14.13;;;10.00;99.90;;;;;;5079528;28;20761;-58
2022/05/03 00:02:55;;;;;;;15.00;13.40;;;10.00;99.90;;;;;;5077901;28;20511;-58
2022/05/03 00:05:37;;;;;;;16.37;14.67;;;9.90;99.90;;;;;;5076663;28;20511;-58
2022/05/03 00:08:09;;;;;;;14.67;13.17;;;9.90;99.90;;;;;;5077200;28;20564;-54
2022/05/03 00:10:51;;;;;;;15.57;14.00;;;9.90;99.90;;;;;;5075937;28;20454;-58
2022/05/03 00:13:20;;;;;;;15.90;14.30;;;9.80;99.90;;;;;;5074946;28;20592;-59
2022/05/03 00:16:06;;;;;;;16.23;14.47;;;9.70;99.90;;;;;;5077377;28;20453;-58
2022/05/03 00:18:37;;;;;;;15.47;13.97;;;9.60;99.90;;;;;;5075512;28;20947;-59
2022/05/03 00:21:09;;;;;;;16.13;14.53;;;9.70;99.90;;;;;;5077843;28;20449;-59
2022/05/03 00:23:37;;;;;;;17.13;14.33;;;9.70;99.90;;;;;;5075044;28;20461;-59
2022/05/03 00:26:07;;;;;;;16.10;12.97;;;9.60;99.90;;;;;;5076611;28;20456;-59
2022/05/03 00:28:35;;;;;;;16.53;15.03;;;9.60;99.90;;;;;;5075163;28;21006;-58
2022/05/03 00:31:06;;;;;;;14.17;12.87;;;9.60;99.90;;;;;;5076033;28;20489;-59
2022/05/03 00:33:35;;;;;;;15.83;13.80;;;9.50;99.90;;;;;;5075943;28;20584;-58
2022/05/03 00:36:07;;;;;;;15.67;13.87;;;9.50;99.90;;;;;;5079088;28;20507;-59
2022/05/03 00:38:34;;;;;;;14.87;13.47;;;9.50;99.90;;;;;;5077735;28;20902;-58
2022/05/03 00:41:06;;;;;;;16.07;13.60;;;9.50;99.90;;;;;;5077964;28;20544;-59
2022/05/03 00:43:42;;;;;;;15.50;14.00;;;9.50;99.90;;;;;;5058377;28;20458;-59
2022/05/03 00:46:17;;;;;;;15.43;14.03;;;9.40;99.90;;;;;;5059057;28;20465;-58
2022/05/03 00:49:24;;;;;;;15.17;13.60;;;9.40;99.90;;;;;;5070298;28;20493;-58
2022/05/03 00:52:01;;;;;;;17.30;14.03;;;9.30;99.90;;;;;;4996717;28;20469;-59
2022/05/03 00:54:42;;;;;;;14.80;13.20;;;9.30;99.90;;;;;;5070153;28;20531;-58
2022/05/03 00:57:26;;;;;;;21.80;12.80;;;9.30;99.90;;;;;;5077771;28;20556;-58
2022/05/03 01:00:11;;;;;;;16.40;14.27;;;9.30;99.90;;;;;;5077591;28;20839;-58
2022/05/03 01:02:57;;;;;;;14.90;12.50;;;9.20;99.90;;;;;;5078385;28;20500;-58
2022/05/03 01:05:29;;;;;;;14.97;13.43;;;9.20;99.90;;;;;;5078078;28;20500;-57
2022/05/03 01:08:07;;;;;;;19.90;12.60;;;9.20;99.90;;;;;;5078383;28;20806;-58
2022/05/03 01:10:37;;;;;;;14.57;13.17;;;9.30;99.90;;;;;;5077575;28;20469;-57
2022/05/03 01:13:12;;;;;;;16.33;14.73;;;9.20;99.90;;;;;;5077435;28;20564;-57
2022/05/03 01:15:44;;;;;;;14.03;12.63;;;9.20;99.90;;;;;;5078192;28;20905;-57
2022/05/03 01:18:26;;;;;;;13.53;12.23;;;9.10;99.90;;;;;;5078065;28;20461;-57
2022/05/03 01:21:11;;;;;;;14.30;12.70;;;9.10;99.90;;;;;;5076672;28;20897;-57
2022/05/03 01:23:56;;;;;;;14.40;12.87;;;9.10;99.90;;;;;;5077816;28;20461;-57
2022/05/03 01:27:06;;;;;;;13.77;11.77;;;9.10;99.90;;;;;;5077206;28;20560;-57
2022/05/03 01:29:37;;;;;;;14.77;12.43;;;9.10;99.90;;;;;;5077735;28;20489;-58
2022/05/03 01:32:07;;;;;;;12.90;11.60;;;9.10;99.90;;;;;;5078030;28;20465;-57
2022/05/03 01:34:41;;;;;;;14.17;12.70;;;9.00;99.90;;;;;;5077701;28;20485;-58
2022/05/03 01:37:24;;;;;;;15.40;13.60;;;9.00;99.90;;;;;;5076474;28;20493;-58
2022/05/03 01:40:05;;;;;;;14.07;12.50;;;8.90;99.90;;;;;;5077325;28;20556;-57
2022/05/03 01:43:11;;;;;;;17.40;13.60;;;8.90;99.90;;;;;;5077774;28;20492;-57
2022/05/03 01:45:44;;;;;;;13.93;12.53;;;8.80;99.90;;;;;;5077583;28;20477;-57
2022/05/03 01:50:18;;;;;;;15.50;13.90;;;8.80;99.90;;;;;;5076722;28;20462;-57
2022/05/03 01:51:25;;;;;;;14.30;12.13;;;8.80;99.90;;;;;;5076879;28;20457;-57
2022/05/03 01:54:04;;;;;;;13.50;12.10;;;8.70;99.90;;;;;;5077439;28;20604;-57
2022/05/03 01:56:56;;;;;;;13.67;12.27;;;8.70;99.90;;;;;;5076866;28;20469;-57
2022/05/03 01:59:31;;;;;;;12.97;11.60;;;8.60;99.90;;;;;;5056931;28;20497;-57
2022/05/03 02:02:07;;;;;;;12.97;11.27;;;8.60;99.90;;;;;;5068778;28;20504;-56
2022/05/03 02:05:04;;;;;;;12.93;11.40;;;8.60;99.90;;;;;;5076862;28;20461;-58
2022/05/03 02:07:58;;;;;;;15.27;12.70;;;8.50;99.90;;;;;;5031380;28;20465;-57
2022/05/03 02:11:02;;;;;;;12.40;11.20;;;8.50;99.90;;;;;;5077258;28;20982;-57
2022/05/03 02:16:56;;;;;;;13.87;11.70;;;8.50;99.90;;;;;;5030995;28;20442;-57
2022/05/03 02:19:43;;;;;;;14.30;12.90;;;8.50;99.90;;;;;;5075080;28;20465;-57
2022/05/03 02:22:50;;;;;;;16.37;11.40;;;8.40;99.90;;;;;;5077268;28;20481;-57
2022/05/03 02:25:29;;;;;;;14.53;11.63;;;8.40;99.90;;;;;;4995035;28;21140;-58
2022/05/03 02:28:02;;;;;;;13.60;12.27;;;8.40;1.00;;;;;;5063710;28;20785;-58
2022/05/03 02:30:39;;;;;;;14.47;12.20;;;8.40;1.00;;;;;;5077073;28;20944;-58
2022/05/03 02:33:14;;;;;;;13.07;11.77;;;8.40;1.00;;;;;;5076584;28;20472;-58
2022/05/03 02:35:48;;;;;;;16.83;11.80;;;8.40;99.90;;;;;;5076986;28;20834;-56
2022/05/03 02:38:21;;;;;;;11.97;10.53;;;8.50;99.90;;;;;;5076419;28;20461;-58
2022/05/03 02:40:53;;;;;;;13.40;9.90;;;8.50;99.90;;;;;;5076867;28;20462;-58
2022/05/03 02:43:25;;;;;;;12.00;10.70;;;8.60;99.90;;;;;;5077072;28;20472;-58
2022/05/03 02:46:00;;;;;;;11.77;10.63;;;8.60;99.90;;;;;;5076626;28;20453;-58
2022/05/03 02:48:35;;;;;;;10.70;9.60;;;8.60;99.90;;;;;;5076950;28;20511;-58
2022/05/03 02:51:08;;;;;;;11.77;10.60;;;8.60;99.90;;;;;;5056779;28;20469;-58
2022/05/03 02:53:46;;;;;;;12.60;11.30;;;8.60;99.90;;;;;;5062746;28;20894;-57
2022/05/03 02:56:27;;;;;;;13.80;10.50;;;8.60;99.90;;;;;;5080930;28;20453;-58
2022/05/03 02:59:10;;;;;;;11.43;10.30;;;8.60;99.90;;;;;;5080536;28;20481;-57
2022/05/03 03:01:47;;;;;;;12.37;10.03;;;8.50;99.90;;;;;;5080792;28;20552;-58
2022/05/03 03:04:35;;;;;;;12.47;10.30;;;8.40;99.90;;;;;;5079990;28;20766;-58
2022/05/03 03:07:05;;;;;;;11.20;9.90;;;8.40;99.90;;;;;;5080598;28;20886;-58
2022/05/03 03:09:42;;;;;;;13.10;9.70;;;8.30;99.90;;;;;;5080400;28;20496;-58
2022/05/03 03:12:20;;;;;;;10.20;9.20;;;8.30;99.90;;;;;;5080523;28;20511;-57
2022/05/03 03:14:48;;;;;;;14.20;11.30;;;8.20;99.90;;;;;;5079799;28;20994;-58
2022/05/03 03:17:26;;;;;;;11.50;9.97;;;8.20;99.90;;;;;;5080183;28;20917;-58
2022/05/03 03:20:12;;;;;;;11.97;10.00;;;8.10;99.90;;;;;;5080336;28;20468;-58
2022/05/03 03:22:47;;;;;;;11.77;10.47;;;8.10;99.90;;;;;;5079707;28;20500;-58
2022/05/03 03:25:15;;;;;;;10.53;8.80;;;8.10;99.90;;;;;;5080093;28;20452;-57
2022/05/03 03:27:44;;;;;;;10.73;9.63;;;8.00;99.90;;;;;;5079075;28;20898;-57
2022/05/03 03:30:16;;;;;;;10.50;9.50;;;8.00;99.90;;;;;;5080295;28;20470;-58
2022/05/03 03:33:06;;;;;;;10.20;9.20;;;8.00;99.90;;;;;;5079642;28;20800;-58
2022/05/03 03:35:34;;;;;;;10.80;9.70;;;7.90;99.90;;;;;;5060144;28;20496;-58
2022/05/03 03:38:04;;;;;;;11.97;10.30;;;7.80;99.90;;;;;;5067317;28;20552;-58
2022/05/03 03:40:31;;;;;;;12.27;10.33;;;7.80;99.90;;;;;;5080076;28;20501;-58
2022/05/03 03:43:05;;;;;;;11.73;9.73;;;7.80;99.90;;;;;;5079676;28;20945;-58
2022/05/03 03:45:32;;;;;;;11.17;10.07;;;7.70;99.90;;;;;;5078945;28;20778;-58
2022/05/03 03:48:03;;;;;;;11.80;9.77;;;7.70;99.90;;;;;;5079426;28;20457;-58
2022/05/03 03:50:34;;;;;;;10.80;9.43;;;7.80;99.90;;;;;;5079719;28;20552;-58
2022/05/03 03:53:06;;;;;;;10.73;9.60;;;7.70;99.90;;;;;;5079314;28;20508;-58
2022/05/03 03:55:36;;;;;;;10.63;9.67;;;7.70;99.90;;;;;;5078870;28;20517;-57
2022/05/03 03:58:03;;;;;;;10.27;9.27;;;7.70;99.90;;;;;;5079600;28;20489;-58
2022/05/03 04:00:37;;;;;;;9.80;8.83;;;7.60;99.90;;;;;;5079547;28;20461;-57
2022/05/03 04:03:07;;;;;;;10.93;9.80;;;7.60;99.90;;;;;;5079276;28;20896;-58
2022/05/03 04:05:36;;;;;;;10.83;9.73;;;7.60;99.90;;;;;;5076621;28;20511;-58
2022/05/03 04:08:05;;;;;;;10.67;9.57;;;7.50;99.90;;;;;;5079323;28;20440;-57
2022/05/03 04:10:35;;;;;;;10.20;8.97;;;7.40;99.90;;;;;;5079011;28;20476;-58
2022/05/03 04:13:08;;;;;;;10.43;8.83;;;7.50;99.90;;;;;;5078156;28;20449;-58
2022/05/03 04:15:38;;;;;;;12.00;8.90;;;7.50;99.90;;;;;;5077235;28;20920;-58
2022/05/03 04:18:07;;;;;;;11.10;9.50;;;7.50;99.90;;;;;;5077853;28;20543;-58
2022/05/03 04:20:37;;;;;;;11.30;9.80;;;7.40;99.90;;;;;;5077671;28;20466;-58
2022/05/03 04:23:10;;;;;;;10.87;9.40;;;7.50;99.90;;;;;;5077674;28;20492;-59
2022/05/03 04:25:48;;;;;;;12.47;9.57;;;7.50;99.90;;;;;;5074711;28;20739;-58
2022/05/03 04:28:15;;;;;;;10.77;9.67;;;7.60;99.90;;;;;;5075717;28;20540;-57
2022/05/03 04:30:42;;;;;;;10.50;9.40;;;7.60;99.90;;;;;;5076636;28;20556;-57
2022/05/03 04:33:12;;;;;;;14.07;10.10;;;7.60;99.90;;;;;;5077136;28;20964;-58
2022/05/03 04:35:46;;;;;;;11.57;10.13;;;7.70;99.90;;;;;;5075152;28;20481;-57
2022/05/03 04:38:14;;;;;;;11.37;10.17;;;7.70;99.90;;;;;;5076788;28;20454;-58
2022/05/03 04:40:41;;;;;;;14.20;9.40;;;7.80;99.90;;;;;;5076194;28;20548;-58
2022/05/03 04:43:08;;;;;;;15.57;10.40;;;7.80;99.90;;;;;;5076951;28;20477;-57
2022/05/03 04:45:35;;;;;;;10.90;9.80;;;7.80;99.90;;;;;;5076398;28;20497;-56
2022/05/03 04:48:08;;;;;;;14.53;11.07;;;7.80;99.90;;;;;;5075824;28;20469;-58
2022/05/03 04:50:36;;;;;;;11.50;10.40;;;7.80;99.90;;;;;;5077244;28;20453;-58
2022/05/03 04:53:08;;;;;;;16.43;10.67;;;7.80;99.90;;;;;;5075914;28;20552;-56
2022/05/03 04:55:49;;;;;;;14.47;10.97;;;7.90;99.90;;;;;;5071528;28;20876;-57
2022/05/03 04:58:19;;;;;;;13.57;10.90;;;7.90;99.90;;;;;;5074426;28;20548;-57
2022/05/03 05:00:53;;;;;;;12.67;10.37;;;7.90;99.90;;;;;;5073661;28;20764;-58
2022/05/03 05:03:20;;;;;;;11.57;9.70;;;8.00;99.90;;;;;;5071978;28;20506;-58
2022/05/03 05:05:47;;;;;;;12.30;10.97;;;8.10;99.90;;;;;;5075375;28;20556;-58
2022/05/03 05:08:23;;;;;;;11.30;10.17;;;8.10;99.90;;;;;;5075804;28;20458;-57
2022/05/03 05:10:51;;;;;;;14.77;10.63;;;8.20;99.90;;;;;;5075838;28;20464;-58
2022/05/03 05:13:25;;;;;;;11.53;10.00;;;8.30;99.90;;;;;;5073131;28;20555;-57
2022/05/03 05:15:52;;;;;;;14.17;11.27;;;8.30;99.90;;;;;;5075381;28;20842;-57
2022/05/03 05:18:18;;;;;;;10.23;9.23;;;8.40;99.90;;;;;;5072959;28;20568;-57
2022/05/03 05:20:51;;;;;;;11.07;9.77;;;8.40;99.90;;;;;;5077163;28;20548;-58
2022/05/03 05:23:23;;;;;;;10.70;9.60;;;8.40;99.90;;;;;;5076630;28;20444;-58
2022/05/03 05:25:55;;;;;;;11.73;10.53;;;8.50;99.90;;;;;;5077331;28;20551;-58
2022/05/03 05:28:26;;;;;;;10.60;9.50;;;8.50;99.90;;;;;;5073288;28;20470;-58
2022/05/03 05:30:56;;;;;;;12.03;10.57;;;8.60;99.90;;;;;;5076699;28;20449;-58
2022/05/03 05:33:24;;;;;;;10.33;9.33;;;8.70;99.90;;;;;;5074100;28;20488;-57
2022/05/03 05:35:54;;;;;;;15.03;11.00;;;8.80;99.90;;;;;;5076463;28;20511;-58
2022/05/03 05:38:26;;;;;;;11.33;10.20;;;8.90;99.90;;;;;;5076214;28;20829;-57
2022/05/03 05:40:56;;;;;;;11.87;10.60;;;9.00;99.90;;;;;;5073341;28;20977;-57
2022/05/03 05:43:26;;;;;;;12.00;10.80;;;9.00;99.90;;;;;;5072652;28;20867;-57
2022/05/03 05:46:05;;;;;;;11.80;10.60;;;9.00;99.90;;;;;;5071411;28;20587;-57
2022/05/03 05:48:35;;;;;;;14.60;10.43;;;9.10;99.90;;;;;;5066429;28;20457;-57
2022/05/03 05:51:05;;;;;;;15.10;12.07;;;9.10;99.90;;;;;;5069032;28;20600;-57
2022/05/03 05:53:33;;;;;;;12.40;10.10;;;9.20;99.90;;;;;;5074401;28;20497;-57
2022/05/03 05:56:05;;;;;;;11.30;10.20;;;9.40;99.90;;;;;;5076821;28;20574;-58
2022/05/03 05:58:42;;;;;;;13.30;10.70;;;9.40;99.90;;;;;;5073014;28;20476;-56
2022/05/03 06:01:11;;;;;;;15.67;10.40;;;9.60;99.90;;;;;;5068636;28;20893;-58
2022/05/03 06:03:41;;;;;;;12.57;10.27;;;9.80;99.90;;;;;;5074542;28;20488;-58
2022/05/03 06:06:08;;;;;;;13.93;9.50;;;10.00;99.90;;;;;;5074608;28;20457;-58
2022/05/03 06:08:37;;;;;;;11.63;9.87;;;10.20;99.90;;;;;;5076241;28;20503;-58
2022/05/03 06:11:05;;;;;;;10.77;9.53;;;10.40;99.90;;;;;;5073869;28;20476;-58
2022/05/03 06:13:35;;;;;;;10.30;9.20;;;10.70;99.90;;;;;;5074407;28;20488;-58
2022/05/03 06:16:18;;;;;;;10.33;9.20;;;10.80;99.90;;;;;;5076546;28;20489;-58
2022/05/03 06:18:45;;;;;;;10.00;9.00;;;11.00;99.90;;;;;;5076300;28;20472;-58
2022/05/03 06:21:18;;;;;;;9.90;8.90;;;11.10;99.90;;;;;;5076325;28;20519;-59
2022/05/03 06:23:48;;;;;;;12.43;8.53;;;11.20;99.90;;;;;;5076672;28;20526;-58
2022/05/03 06:26:16;;;;;;;9.30;8.40;;;11.40;99.90;;;;;;5074964;28;20553;-58
2022/05/03 06:28:43;;;;;;;8.77;7.97;;;11.60;99.90;;;;;;5075190;28;20465;-58
2022/05/03 06:31:13;;;;;;;11.23;8.47;;;11.80;99.90;;;;;;5079336;28;20755;-58
2022/05/03 06:33:42;;;;;;;10.40;9.30;;;12.10;99.90;;;;;;5079979;28;20462;-59
2022/05/03 06:36:10;;;;;;;9.57;8.50;;;12.20;99.90;;;;;;5079961;28;20467;-59
2022/05/03 06:38:43;;;;;;;11.87;7.53;;;12.20;99.90;;;;;;5080700;28;20512;-58
2022/05/03 06:41:12;;;;;;;10.57;8.33;;;12.40;99.90;;;;;;5079570;28;20512;-59
2022/05/03 06:43:40;;;;;;;9.20;8.30;;;12.70;99.90;;;;;;5079140;28;20909;-59
2022/05/03 06:46:07;;;;;;;9.33;8.43;;;12.80;99.90;;;;;;5079463;28;20465;-59
2022/05/03 06:48:37;;;;;;;7.80;7.10;;;12.90;99.90;;;;;;5080140;28;20507;-59
2022/05/03 06:51:05;;;;;;;7.77;7.07;;;13.10;99.90;;;;;;5079265;28;20530;-59
2022/05/03 06:53:32;;;;;;;9.00;8.07;;;13.30;99.90;;;;;;5080082;28;20870;-60
2022/05/03 06:56:04;;;;;;;8.10;7.40;;;13.30;99.90;;;;;;5079578;28;20527;-59
2022/05/03 06:58:31;;;;;;;8.40;7.60;;;13.60;99.90;;;;;;5080599;28;20497;-60
2022/05/03 07:01:09;;;;;;;8.20;7.40;;;13.90;99.90;;;;;;5080070;28;20534;-58
2022/05/03 07:03:36;;;;;;;9.03;6.90;;;14.00;99.90;;;;;;5079158;28;20461;-58
2022/05/03 07:06:04;;;;;;;7.50;6.80;;;14.10;99.90;;;;;;5077966;28;20563;-60
2022/05/03 07:08:38;;;;;;;8.53;6.97;;;14.20;99.90;;;;;;5079681;28;20514;-59
2022/05/03 07:11:06;;;;;;;8.00;7.30;;;14.50;99.90;;;;;;5079644;28;20507;-59
2022/05/03 07:13:35;;;;;;;8.80;7.90;;;14.50;99.90;;;;;;5076991;28;20488;-60
2022/05/03 07:16:10;;;;;;;8.23;6.40;;;14.00;99.90;;;;;;5078966;28;20493;-60
2022/05/03 07:24:07;;;;;;;7.70;7.10;;;14.70;99.90;;;;;;5078762;28;20464;-58
2022/05/03 07:26:37;;;;;;;7.37;6.67;;;14.90;99.90;;;;;;5079864;28;20453;-59
2022/05/03 07:29:07;;;;;;;7.90;6.80;;;15.30;99.90;;;;;;5077593;28;20465;-60
2022/05/03 07:31:41;;;;;;;9.50;7.47;;;15.20;99.90;;;;;;5078446;28;20465;-59
2022/05/03 07:34:14;;;;;;;8.33;7.43;;;15.40;99.90;;;;;;5079233;28;20543;-58
2022/05/03 07:36:44;;;;;;;8.30;7.40;;;15.70;99.90;;;;;;5079347;28;20587;-59
2022/05/03 07:39:11;;;;;;;7.87;7.17;;;15.90;99.90;;;;;;5077511;28;20472;-58
2022/05/03 07:41:41;;;;;;;8.63;7.73;;;15.90;99.90;;;;;;5079150;28;20552;-58
2022/05/03 07:44:08;;;;;;;8.20;7.50;;;15.80;99.90;;;;;;5078046;28;20465;-59
2022/05/03 07:46:39;;;;;;;7.37;6.77;;;16.00;99.90;;;;;;5078859;28;20472;-60
2022/05/03 07:49:06;;;;;;;7.87;7.20;;;16.40;99.90;;;;;;5078260;28;20497;-60
2022/05/03 07:51:36;;;;;;;7.70;6.60;;;16.60;99.90;;;;;;5079607;28;20465;-60
2022/05/03 07:54:06;;;;;;;7.17;6.47;;;16.90;99.90;;;;;;5077791;28;20473;-59
2022/05/03 07:56:33;;;;;;;13.33;7.70;;;17.10;99.90;;;;;;5078636;28;20524;-60
2022/05/03 07:59:00;;;;;;;7.53;6.90;;;16.90;99.90;;;;;;5077446;28;20530;-59
2022/05/03 08:01:29;;;;;;;8.17;6.87;;;16.50;99.90;;;;;;5079175;28;20760;-60
2022/05/03 08:03:58;;;;;;;7.23;6.53;;;16.80;99.90;;;;;;5079180;28;20499;-59
2022/05/03 08:06:27;;;;;;;7.57;6.87;;;17.10;99.90;;;;;;5078565;28;20531;-60
2022/05/03 08:08:54;;;;;;;6.77;6.27;;;17.30;99.90;;;;;;5078520;28;20515;-59
2022/05/03 08:11:25;;;;;;;8.37;7.23;;;17.60;99.90;;;;;;5078771;28;20466;-60
2022/05/03 08:13:59;;;;;;;6.57;5.97;;;17.50;99.90;;;;;;5078775;28;20540;-60
2022/05/03 08:16:30;;;;;;;7.73;7.00;;;17.60;99.90;;;;;;5078176;28;20516;-60
2022/05/03 08:18:59;;;;;;;7.20;6.50;;;18.00;99.90;;;;;;5078148;28;20465;-60
2022/05/03 08:21:27;;;;;;;6.57;6.03;;;17.20;99.90;;;;;;5078848;28;20534;-59
2022/05/03 08:23:54;;;;;;;7.50;6.90;;;17.30;99.90;;;;;;5078529;28;20469;-60
2022/05/03 08:26:26;;;;;;;6.20;5.70;;;17.80;99.90;;;;;;5078900;28;20453;-59
2022/05/03 08:29:02;;;;;;;7.53;6.67;;;17.90;99.90;;;;;;5079191;28;20483;-60
2022/05/03 08:31:32;;;;;;;7.90;6.90;;;18.00;99.90;;;;;;5063401;28;20472;-59
2022/05/03 08:34:02;;;;;;;6.83;6.23;;;18.30;99.90;;;;;;5074803;28;20472;-60
2022/05/03 08:36:32;;;;;;;7.10;6.40;;;18.30;99.90;;;;;;5077394;28;20937;-59
2022/05/03 08:42:07;;;;;;;6.43;5.83;;;18.60;99.90;;;;;;5077864;28;20448;-60
2022/05/03 08:44:36;;;;;;;6.90;6.30;;;18.70;99.90;;;;;;5078001;28;21134;-60
2022/05/03 08:47:21;;;;;;;8.63;5.87;;;18.60;99.90;;;;;;5077545;28;20554;-60
2022/05/03 08:50:02;;;;;;;6.97;6.20;;;18.60;99.90;;;;;;5072498;28;20529;-59
2022/05/03 08:52:33;;;;;;;7.03;6.43;;;18.90;99.90;;;;;;5075424;28;20955;-59
2022/05/03 08:55:01;;;;;;;8.90;6.10;;;18.80;99.90;;;;;;5075388;28;20473;-60
2022/05/03 08:57:32;;;;;;;7.23;6.53;;;18.80;99.90;;;;;;5076371;28;20591;-60
2022/05/03 08:59:59;;;;;;;7.30;6.60;;;18.80;99.90;;;;;;5076756;28;20469;-60
2022/05/03 09:02:28;;;;;;;6.83;6.00;;;19.10;99.90;;;;;;5074850;28;20776;-60
2022/05/03 09:04:57;;;;;;;7.00;6.20;;;19.40;99.90;;;;;;5076200;28;20893;-59
2022/05/03 09:07:27;;;;;;;6.00;5.50;;;19.50;99.90;;;;;;5076416;28;20759;-60
2022/05/03 09:10:14;;;;;;;6.87;5.73;;;19.70;99.90;;;;;;5077117;28;20476;-59
2022/05/03 09:12:44;;;;;;;6.67;6.07;;;19.70;99.90;;;;;;5076835;28;20500;-59
2022/05/03 09:15:12;;;;;;;9.03;6.70;;;19.80;99.90;;;;;;5067277;28;20525;-61
2022/05/03 09:17:41;;;;;;;9.77;6.10;;;19.60;99.90;;;;;;5077446;28;20500;-61
2022/05/03 09:26:10;;;;;;;6.70;6.10;;;20.60;99.90;;;;;;5076965;28;20437;-61
2022/05/03 09:28:46;;;;;;;12.13;6.80;;;20.60;99.90;;;;;;5074060;28;20492;-60
2022/05/03 09:31:13;;;;;;;7.13;6.30;;;19.50;99.90;;;;;;5072702;28;20505;-61
2022/05/03 09:33:40;;;;;;;9.67;7.33;;;19.00;99.90;;;;;;5076330;28;20461;-60
2022/05/03 09:36:12;;;;;;;7.87;7.17;;;19.50;99.90;;;;;;5075323;28;20574;-60
2022/05/03 09:38:46;;;;;;;8.13;5.90;;;20.10;99.90;;;;;;5075297;28;20771;-60
2022/05/03 09:41:19;;;;;;;7.23;6.60;;;20.20;99.90;;;;;;5075547;28;20552;-60
2022/05/03 09:44:10;;;;;;;6.30;5.80;;;19.80;99.90;;;;;;5075092;28;20592;-61
2022/05/03 09:46:54;;;;;;;6.87;6.27;;;19.30;99.90;;;;;;5056850;28;20948;-60
2022/05/03 09:49:35;;;;;;;6.90;6.20;;;19.40;99.90;;;;;;5076155;28;20480;-61
2022/05/03 09:52:04;;;;;;;8.47;6.77;;;19.10;99.90;;;;;;5075742;28;20508;-60
2022/05/03 09:54:49;;;;;;;9.00;6.63;;;20.10;99.90;;;;;;5076439;28;20489;-61
2022/05/03 09:57:22;;;;;;;8.07;6.40;;;20.40;99.90;;;;;;5076904;28;20489;-60
2022/05/03 09:59:49;;;;;;;7.93;7.23;;;21.30;99.90;;;;;;5076510;28;20615;-61
2022/05/03 10:02:19;;;;;;;7.20;6.60;;;22.20;99.90;;;;;;5075799;28;20457;-60
2022/05/03 10:04:49;;;;;;;7.30;6.43;;;22.10;99.90;;;;;;5076461;28;20461;-59
2022/05/03 10:07:20;;;;;;;6.50;5.90;;;21.80;99.90;;;;;;5076275;28;20886;-60
2022/05/03 10:09:57;;;;;;;7.83;6.10;;;20.90;99.90;;;;;;5076013;28;20468;-60
2022/05/03 10:12:25;;;;;;;6.73;6.00;;;22.00;99.90;;;;;;5076060;28;20479;-61
2022/05/03 10:14:52;;;;;;;12.87;6.40;;;21.90;99.90;;;;;;5076160;28;20790;-61
2022/05/03 10:23:03;;;;;;;6.73;6.13;;;22.30;99.90;;;;;;5075317;28;20441;-60
2022/05/03 10:25:35;;;;;;;8.20;6.27;;;20.60;99.90;;;;;;5076535;28;20465;-60
2022/05/03 10:28:02;;;;;;;8.47;5.90;;;20.30;99.90;;;;;;5076523;28;20917;-60
2022/05/03 10:30:29;;;;;;;7.67;6.97;;;21.30;99.90;;;;;;5076539;28;20469;-59
2022/05/03 10:33:35;;;;;;;10.47;6.97;;;21.40;99.90;;;;;;5075933;28;20469;-59
2022/05/03 10:36:23;;;;;;;7.70;6.57;;;22.20;99.90;;;;;;5076125;28;20808;-60
2022/05/03 10:38:51;;;;;;;6.50;5.90;;;22.70;99.90;;;;;;5062977;28;20466;-60
2022/05/03 10:41:27;;;;;;;6.87;6.20;;;22.90;99.90;;;;;;5075173;28;20523;-61
2022/05/03 10:44:38;;;;;;;7.43;6.83;;;21.00;99.90;;;;;;5075400;28;20469;-61
2022/05/03 10:47:09;;;;;;;6.70;5.70;;;19.90;99.90;;;;;;5076202;28;20551;-60
2022/05/03 10:49:36;;;;;;;6.53;5.50;;;19.80;99.90;;;;;;5075928;28;20526;-61
2022/05/03 10:52:21;;;;;;;6.63;6.13;;;19.40;99.90;;;;;;5079832;28;20477;-61
2022/05/03 10:55:10;;;;;;;7.13;6.53;;;19.20;99.90;;;;;;5066024;28;20922;-61
2022/05/03 10:58:11;;;;;;;6.90;6.40;;;19.40;99.90;;;;;;5058247;28;20524;-61
2022/05/03 11:01:04;;;;;;;6.93;6.43;;;20.30;99.90;;;;;;5067878;28;20493;-61
2022/05/03 11:03:35;;;;;;;7.73;7.13;;;19.30;99.90;;;;;;5075149;28;20453;-61
2022/05/03 11:06:40;;;;;;;6.60;6.10;;;19.80;99.90;;;;;;5076048;28;20458;-61
2022/05/03 11:09:15;;;;;;;8.87;6.47;;;19.90;99.90;;;;;;5075932;28;20461;-61
2022/05/03 11:12:12;;;;;;;6.97;6.30;;;20.20;99.90;;;;;;5075843;28;20935;-59
2022/05/03 11:14:55;;;;;;;7.23;6.60;;;21.40;99.90;;;;;;5075820;28;20998;-60
2022/05/03 11:17:22;;;;;;;8.57;7.63;;;21.50;99.90;;;;;;5079960;28;20492;-59
2022/05/03 11:20:01;;;;;;;8.17;6.23;;;22.30;99.90;;;;;;5078778;28;20465;-60
2022/05/03 11:22:42;;;;;;;7.57;6.83;;;23.00;99.90;;;;;;5077408;28;20483;-61
2022/05/03 11:25:15;;;;;;;5.83;5.40;;;22.50;99.90;;;;;;5077605;28;20493;-61
2022/05/03 11:27:45;;;;;;;5.80;5.40;;;22.80;99.90;;;;;;5077679;28;20819;-61
2022/05/03 11:30:16;;;;;;;6.30;5.80;;;22.30;99.90;;;;;;5078493;28;20552;-61
2022/05/03 11:32:45;;;;;;;6.80;6.20;;;22.30;99.90;;;;;;5077565;28;20461;-61
2022/05/03 11:35:15;;;;;;;6.87;6.37;;;21.10;99.90;;;;;;5077787;28;20496;-61
2022/05/03 11:37:47;;;;;;;9.37;7.20;;;21.60;99.90;;;;;;5079655;28;20531;-61
2022/05/03 11:40:18;;;;;;;7.00;6.20;;;21.50;99.90;;;;;;5079356;28;20905;-58
2022/05/03 11:42:51;;;;;;;8.40;6.40;;;21.90;99.90;;;;;;5078842;28;21035;-60
2022/05/03 11:45:21;;;;;;;9.73;7.53;;;22.60;99.90;;;;;;5077662;28;20480;-61
2022/05/03 11:47:55;;;;;;;8.07;7.27;;;21.60;99.90;;;;;;5075717;28;20890;-60
2022/05/03 11:56:07;;;;;;;9.33;8.53;;;22.10;99.90;;;;;;5076651;28;20463;-61
2022/05/03 11:58:37;;;;;;;8.70;7.90;;;21.30;99.90;;;;;;5077030;28;20532;-61
2022/05/03 12:01:20;;;;;;;7.70;7.10;;;21.80;99.90;;;;;;5077697;28;20476;-61
2022/05/03 12:03:51;;;;;;;8.60;7.80;;;22.20;99.90;;;;;;5075663;28;20602;-61
2022/05/03 12:06:19;;;;;;;9.87;9.07;;;21.80;99.90;;;;;;5077219;28;20524;-60
2022/05/03 12:08:50;;;;;;;9.00;8.30;;;21.40;99.90;;;;;;5077613;28;20494;-60
2022/05/03 12:11:25;;;;;;;32.43;11.00;;;21.80;99.90;;;;;;5074995;28;20920;-59
2022/05/03 12:13:57;;;;;;;9.43;8.63;;;22.20;99.90;;;;;;5073842;28;20491;-60
2022/05/03 12:16:27;;;;;;;9.17;8.40;;;22.70;99.90;;;;;;5077030;28;20461;-59
2022/05/03 12:18:55;;;;;;;11.53;8.40;;;23.90;99.90;;;;;;5075203;28;20489;-60
2022/05/03 12:21:29;;;;;;;10.07;8.70;;;24.20;99.90;;;;;;5077153;28;20759;-60
2022/05/03 12:24:04;;;;;;;8.63;7.90;;;24.60;99.90;;;;;;5074692;28;20472;-60
2022/05/03 12:26:40;;;;;;;8.97;8.23;;;23.90;99.90;;;;;;5073655;28;20471;-60
2022/05/03 12:29:18;;;;;;;9.60;8.70;;;24.10;99.90;;;;;;5080963;28;20560;-61
2022/05/03 12:31:47;;;;;;;10.00;9.20;;;24.50;99.90;;;;;;5077197;28;20898;-61
2022/05/03 12:34:24;;;;;;;9.40;7.93;;;24.40;99.90;;;;;;5077756;28;20465;-61
2022/05/03 12:37:03;;;;;;;9.80;9.00;;;23.70;99.90;;;;;;5068530;28;20793;-61
2022/05/03 12:39:38;;;;;;;10.03;9.23;;;23.00;99.90;;;;;;5076046;28;20958;-61
2022/05/03 12:42:15;;;;;;;10.50;9.57;;;24.10;99.90;;;;;;5079258;28;20529;-61
2022/05/03 12:44:52;;;;;;;9.23;8.40;;;24.60;99.90;;;;;;5079025;28;20476;-61
2022/05/03 12:47:22;;;;;;;12.67;9.40;;;24.30;99.90;;;;;;5074320;28;20489;-61
2022/05/03 12:49:52;;;;;;;12.20;10.60;;;23.60;99.90;;;;;;5068811;28;20473;-61
2022/05/03 12:52:20;;;;;;;10.80;9.83;;;23.40;99.90;;;;;;5075921;28;20993;-61
2022/05/03 12:54:55;;;;;;;10.07;9.27;;;22.90;99.90;;;;;;5075299;28;20544;-61
2022/05/03 13:00:21;;;;;;;9.93;9.17;;;22.80;99.90;;;;;;5080466;28;20445;-60
2022/05/03 13:02:49;;;;;;;10.50;9.60;;;22.90;99.90;;;;;;5062876;28;20463;-60
2022/05/03 13:05:19;;;;;;;11.63;10.53;;;23.20;99.90;;;;;;5074670;28;20472;-61
2022/05/03 13:07:47;;;;;;;11.23;10.13;;;23.30;99.90;;;;;;5076845;28;20878;-61
2022/05/03 13:10:23;;;;;;;10.33;9.43;;;24.20;99.90;;;;;;5075723;28;20465;-61
2022/05/03 13:12:51;;;;;;;12.23;9.57;;;23.10;99.90;;;;;;5077652;28;20729;-60
2022/05/03 13:15:30;;;;;;;10.03;9.23;;;23.80;99.90;;;;;;5077516;28;20492;-61
2022/05/03 13:18:00;;;;;;;11.70;9.33;;;24.50;99.90;;;;;;5077718;28;20496;-61
2022/05/03 13:20:27;;;;;;;10.80;9.80;;;23.60;99.90;;;;;;5075665;28;20493;-61
2022/05/03 13:22:58;;;;;;;10.50;9.70;;;22.80;99.90;;;;;;5074949;28;20898;-61
2022/05/03 13:25:28;;;;;;;10.10;8.97;;;21.50;99.90;;;;;;5075744;28;20523;-61
2022/05/03 13:27:59;;;;;;;11.27;10.20;;;22.80;99.90;;;;;;5077348;28;20485;-61
2022/05/03 13:30:33;;;;;;;11.23;10.40;;;22.80;99.90;;;;;;5075275;28;20477;-61
2022/05/03 13:33:00;;;;;;;9.30;8.60;;;22.90;99.90;;;;;;5075943;28;20818;-61
2022/05/03 13:41:00;;;;;;;10.27;9.27;;;21.30;99.90;;;;;;5069940;28;20460;-61
2022/05/03 13:43:33;;;;;;;10.83;9.73;;;21.50;99.90;;;;;;5076109;28;20493;-59
2022/05/03 13:46:04;;;;;;;9.90;9.20;;;21.90;99.90;;;;;;5075617;28;20539;-61
2022/05/03 13:48:36;;;;;;;10.47;8.60;;;21.40;99.90;;;;;;5073656;28;20615;-60
2022/05/03 13:51:05;;;;;;;10.03;9.03;;;21.40;99.90;;;;;;5074565;28;20473;-60
2022/05/03 13:53:32;;;;;;;9.07;8.37;;;21.10;99.90;;;;;;5074381;28;20489;-61